Neki — WDF5694 — position and weather

sailwx.info

Track history (hours):
 
Tides and Currents Weather Stations Pressure Air Temp Water Temp Dewpoint Dewpoint Depression Visibility Wind Speed Wind Dir Waves Ship Positions

Neki

Owner: Noble Marine, LLC, Lighthouse Point, FL. More information available from US FCC via Universal Licensing System and Coast Guard Vessel Documentation Center.

Last reported at 2015-Jul-29 18:32 UTC. Time now 2015-Jul-30 06:02 UTC.
Position N 41°29' W 071°21'.

Length 20 m.

Type: Sailing vessel. MMSI: 367466230.

Date/timePositionNaut miles runAvg speedWind from/ knotsBaromVisibWave heightAir tempDewpointWater temp
2015-Jul-29 18:32N 41°29' W 071°21'1 0.2
2015-Jul-29 13:24N 41°29' W 071°20'0 0.0
2015-Jul-29 12:32N 41°29' W 071°20'0 0.0
2015-Jul-29 11:29N 41°29' W 071°20'0 0.0
2015-Jul-29 10:31N 41°29' W 071°20'0 0.0
2015-Jul-29 09:31N 41°29' W 071°20'0 0.0
2015-Jul-29 08:28N 41°29' W 071°20'0 0.0
2015-Jul-29 06:28N 41°29' W 071°20'0 0.0
2015-Jul-29 05:31N 41°29' W 071°20'0 0.0
2015-Jul-29 04:31N 41°29' W 071°20'0 0.0
2015-Jul-29 03:28N 41°29' W 071°20'0 0.0
2015-Jul-29 02:22N 41°29' W 071°20'0 0.0
2015-Jul-28 20:13N 41°29' W 071°20'0 0.0
2015-Jul-28 19:31N 41°29' W 071°20'0 0.0
2015-Jul-28 18:31N 41°29' W 071°20'2 1.8
2015-Jul-28 17:32N 41°28' W 071°22'21 2.3
2015-Jul-28 08:32N 41°26' W 070°55'0 0.0
2015-Jul-28 07:32N 41°26' W 070°55'0 0.0
2015-Jul-28 06:29N 41°26' W 070°55'0 0.0
2015-Jul-28 05:32N 41°26' W 070°55'0 0.0
2015-Jul-28 04:29N 41°26' W 070°55'0 0.0
2015-Jul-28 03:29N 41°26' W 070°55'0 0.0
2015-Jul-28 01:32N 41°26' W 070°55'0 0.0
2015-Jul-28 00:29N 41°26' W 070°55'0 0.0
2015-Jul-27 22:11N 41°26' W 070°55'0 0.0
2015-Jul-27 21:32N 41°26' W 070°55'0 0.0
2015-Jul-27 20:32N 41°26' W 070°55'3 1.1
2015-Jul-27 17:33N 41°27' W 070°51'  
Track history (hours):
 
Tides and Currents Weather Stations Pressure Air Temp Water Temp Dewpoint Dewpoint Depression Visibility Wind Speed Wind Dir Waves Ship Positions

Neki

Owner: Noble Marine, LLC, Lighthouse Point, FL. More information available from US FCC via Universal Licensing System and Coast Guard Vessel Documentation Center.

Last reported at 2015-Jul-29 18:32 UTC. Time now 2015-Jul-30 06:02 UTC.
Position N 41°29' W 071°21'.

Length 20 m.

Type: Sailing vessel. MMSI: 367466230.

Date/timePositionNaut miles runAvg speedWind from/ knotsBaromVisibWave heightAir tempDewpointWater temp
2015-Jul-29 18:32N 41°29' W 071°21'1 0.2
2015-Jul-29 13:24N 41°29' W 071°20'0 0.0
2015-Jul-29 12:32N 41°29' W 071°20'0 0.0
2015-Jul-29 11:29N 41°29' W 071°20'0 0.0
2015-Jul-29 10:31N 41°29' W 071°20'0 0.0
2015-Jul-29 09:31N 41°29' W 071°20'0 0.0
2015-Jul-29 08:28N 41°29' W 071°20'0 0.0
2015-Jul-29 06:28N 41°29' W 071°20'0 0.0
2015-Jul-29 05:31N 41°29' W 071°20'0 0.0
2015-Jul-29 04:31N 41°29' W 071°20'0 0.0
2015-Jul-29 03:28N 41°29' W 071°20'0 0.0
2015-Jul-29 02:22N 41°29' W 071°20'0 0.0
2015-Jul-28 20:13N 41°29' W 071°20'0 0.0
2015-Jul-28 19:31N 41°29' W 071°20'0 0.0
2015-Jul-28 18:31N 41°29' W 071°20'2 1.8
2015-Jul-28 17:32N 41°28' W 071°22'21 2.3
2015-Jul-28 08:32N 41°26' W 070°55'0 0.0
2015-Jul-28 07:32N 41°26' W 070°55'0 0.0
2015-Jul-28 06:29N 41°26' W 070°55'0 0.0
2015-Jul-28 05:32N 41°26' W 070°55'0 0.0
2015-Jul-28 04:29N 41°26' W 070°55'0 0.0
2015-Jul-28 03:29N 41°26' W 070°55'0 0.0
2015-Jul-28 01:32N 41°26' W 070°55'0 0.0
2015-Jul-28 00:29N 41°26' W 070°55'0 0.0
2015-Jul-27 22:11N 41°26' W 070°55'0 0.0
2015-Jul-27 21:32N 41°26' W 070°55'0 0.0
2015-Jul-27 20:32N 41°26' W 070°55'3 1.1
2015-Jul-27 17:33N 41°27' W 070°51'  

Dump ship's entire track history